createdAt,value
2019-01-17T00:02:07.064Z,5.34
2019-01-17T00:04:53.384Z,5.31
2019-01-17T00:07:47.999Z,5.34
2019-01-17T00:10:38.137Z,5.50
2019-01-17T00:13:29.234Z,5.49
2019-01-17T00:16:08.986Z,5.46
2019-01-17T00:18:54.674Z,5.39
2019-01-17T00:21:42.024Z,5.39
2019-01-17T00:24:32.429Z,5.33
2019-01-17T00:27:37.727Z,5.37
2019-01-17T00:30:25.273Z,5.24
2019-01-17T00:33:04.938Z,5.27
2019-01-17T00:36:10.243Z,5.25
2019-01-17T00:38:57.598Z,5.23
2019-01-17T00:41:43.531Z,5.25
2019-01-17T00:44:33.707Z,5.35
2019-01-17T00:47:19.690Z,5.25
2019-01-17T00:50:01.969Z,5.21
2019-01-17T00:53:01.269Z,5.25
2019-01-17T00:55:51.617Z,5.16
2019-01-17T00:58:38.985Z,5.24
2019-01-17T01:01:30.492Z,5.27
2019-01-17T01:04:20.003Z,5.27
2019-01-17T01:07:06.004Z,5.38
2019-01-17T01:09:51.477Z,5.35
2019-01-17T01:12:27.259Z,5.34
2019-01-17T01:15:19.463Z,5.37
2019-01-17T01:18:15.725Z,5.25
2019-01-17T01:20:59.627Z,5.34
2019-01-17T01:23:49.985Z,5.44
2019-01-17T01:26:35.717Z,5.42
2019-01-17T01:29:21.669Z,5.39
2019-01-17T01:32:07.790Z,5.51
2019-01-17T01:34:45.205Z,5.54
2019-01-17T01:37:50.489Z,5.53
2019-01-17T01:40:36.768Z,5.51
2019-01-17T01:43:27.200Z,5.62
2019-01-17T01:46:08.389Z,5.56
2019-01-17T01:48:50.868Z,5.60
2019-01-17T01:51:44.278Z,5.60
2019-01-17T01:54:13.273Z,5.60
2019-01-17T01:56:41.203Z,5.77
2019-01-17T01:59:09.182Z,5.70
2019-01-17T02:01:37.213Z,5.67
2019-01-17T02:04:04.964Z,5.56
2019-01-17T02:06:34.042Z,5.65
2019-01-17T02:09:01.909Z,5.69
2019-01-17T02:11:29.851Z,5.73
2019-01-17T02:13:57.712Z,5.69
2019-01-17T02:16:25.684Z,5.59
2019-01-17T02:18:53.458Z,5.59
2019-01-17T02:21:21.410Z,5.78
2019-01-17T02:23:49.162Z,5.65
2019-01-17T02:26:17.093Z,5.69
2019-01-17T02:28:44.842Z,5.63
2019-01-17T02:31:12.805Z,5.73
2019-01-17T02:33:40.548Z,5.85
2019-01-17T02:36:08.441Z,5.95
2019-01-17T02:38:36.189Z,6.05
2019-01-17T02:41:04.113Z,6.05
2019-01-17T02:43:31.858Z,6.05
2019-01-17T02:45:59.627Z,6.11
2019-01-17T02:48:27.398Z,6.09
2019-01-17T02:50:55.278Z,6.17
2019-01-17T02:53:23.049Z,6.32
2019-01-17T02:55:50.987Z,6.13
2019-01-17T02:58:18.735Z,6.21
2019-01-17T03:00:46.624Z,6.27
2019-01-17T03:03:14.529Z,6.29
2019-01-17T03:05:42.599Z,6.24
2019-01-17T03:08:10.398Z,6.32
2019-01-17T03:10:38.117Z,6.31
2019-01-17T03:13:06.055Z,6.34
2019-01-17T03:15:33.910Z,6.32
2019-01-17T03:18:01.858Z,6.38
2019-01-17T03:20:29.618Z,6.19
2019-01-17T03:22:57.355Z,6.13
2019-01-17T03:25:25.130Z,6.16
2019-01-17T03:27:53.066Z,6.27
2019-01-17T03:30:20.827Z,6.26
2019-01-17T03:32:48.754Z,6.35
2019-01-17T03:35:16.521Z,6.29
2019-01-17T03:37:44.377Z,6.47
2019-01-17T03:40:15.336Z,6.51
2019-01-17T03:42:43.390Z,6.52
2019-01-17T03:45:11.374Z,6.58
2019-01-17T03:47:39.136Z,6.52
2019-01-17T03:50:09.952Z,6.64
2019-01-17T03:52:37.780Z,6.69
2019-01-17T03:55:09.697Z,6.63
2019-01-17T03:57:37.607Z,6.71
2019-01-17T04:00:09.390Z,6.72
2019-01-17T04:02:37.359Z,6.77
2019-01-17T04:05:06.214Z,6.80
2019-01-17T04:07:34.032Z,6.79
2019-01-17T04:10:01.828Z,6.80
2019-01-17T04:12:29.722Z,6.74
2019-01-17T04:14:57.482Z,6.75
2019-01-17T04:17:25.383Z,6.95
2019-01-17T04:19:53.148Z,6.72
2019-01-17T04:22:20.912Z,6.78
2019-01-17T04:24:48.666Z,6.71
2019-01-17T04:27:16.582Z,6.75
2019-01-17T04:29:44.377Z,6.85
2019-01-17T04:32:12.280Z,7.01
2019-01-17T04:34:40.052Z,6.92
2019-01-17T04:37:07.792Z,6.95
2019-01-17T04:39:35.718Z,6.88
2019-01-17T04:42:03.571Z,6.90
2019-01-17T04:44:31.559Z,7.04
2019-01-17T04:46:59.334Z,6.84
2019-01-17T04:49:27.109Z,7.01
2019-01-17T04:51:54.850Z,6.94
2019-01-17T04:54:22.597Z,6.88
2019-01-17T04:56:50.533Z,6.98
2019-01-17T04:59:18.259Z,7.01
2019-01-17T05:01:46.021Z,7.04
2019-01-17T05:04:13.785Z,7.03
2019-01-17T05:06:41.563Z,7.04
2019-01-17T05:09:09.381Z,7.15
2019-01-17T05:11:37.165Z,7.17
2019-01-17T05:14:05.117Z,7.10
2019-01-17T05:16:33.627Z,7.11
2019-01-17T05:19:01.589Z,7.19
2019-01-17T05:21:29.352Z,7.17
2019-01-17T05:23:57.106Z,7.28
2019-01-17T05:26:24.887Z,7.18
2019-01-17T05:28:52.842Z,7.21
2019-01-17T05:31:20.665Z,7.08
2019-01-17T05:33:48.587Z,7.22
2019-01-17T05:36:16.433Z,7.21
2019-01-17T05:38:44.169Z,7.27
2019-01-17T05:41:13.294Z,7.23
2019-01-17T05:43:41.215Z,7.25
2019-01-17T05:46:08.974Z,7.38
2019-01-17T05:48:36.720Z,7.29
2019-01-17T05:51:04.502Z,7.27
2019-01-17T05:53:32.236Z,7.31
2019-01-17T05:55:59.985Z,7.22
2019-01-17T05:58:35.486Z,7.22
2019-01-17T06:01:03.705Z,7.31
2019-01-17T06:03:42.902Z,7.25
2019-01-17T06:06:33.051Z,7.28
2019-01-17T06:09:01.056Z,7.31
2019-01-17T06:11:48.584Z,7.31
2019-01-17T06:14:26.132Z,7.29
2019-01-17T06:17:03.666Z,7.28
2019-01-17T06:19:38.332Z,7.29
2019-01-17T06:22:14.868Z,7.21
2019-01-17T06:24:42.838Z,7.05
2019-01-17T06:27:27.294Z,7.24
2019-01-17T06:29:55.290Z,7.31
2019-01-17T06:32:24.574Z,7.19
2019-01-17T06:34:58.359Z,7.38
2019-01-17T06:37:26.134Z,7.35
2019-01-17T06:39:55.407Z,7.23
2019-01-17T06:42:46.848Z,7.33
2019-01-17T06:45:14.660Z,7.14
2019-01-17T06:47:42.481Z,7.12
2019-01-17T06:50:10.463Z,7.30
2019-01-17T06:52:57.206Z,7.20
2019-01-17T06:55:25.744Z,7.30
2019-01-17T07:01:15.187Z,7.31
2019-01-17T07:03:43.256Z,7.43
2019-01-17T07:06:32.731Z,7.38
2019-01-17T07:09:24.360Z,7.39
2019-01-17T07:12:01.747Z,7.39
2019-01-17T07:14:35.710Z,7.43
2019-01-17T07:17:20.168Z,7.30
2019-01-17T07:19:55.513Z,7.15
2019-01-17T07:22:23.323Z,7.27
2019-01-17T07:24:51.069Z,7.41
2019-01-17T07:27:52.815Z,7.40
2019-01-17T07:30:41.281Z,7.47
2019-01-17T07:33:12.281Z,7.56
2019-01-17T07:35:57.939Z,7.47
2019-01-17T07:38:25.744Z,7.48
2019-01-17T07:40:53.685Z,7.41
2019-01-17T07:43:22.209Z,7.40
2019-01-17T07:45:50.098Z,7.52
2019-01-17T07:48:17.892Z,7.44
2019-01-17T07:50:47.037Z,7.51
2019-01-17T07:53:14.801Z,7.57
2019-01-17T07:55:47.557Z,7.58
2019-01-17T07:58:12.466Z,7.54
2019-01-17T08:00:40.228Z,7.54
2019-01-17T08:03:37.274Z,7.59
2019-01-17T08:06:30.130Z,7.54
2019-01-17T08:09:12.699Z,7.57
2019-01-17T08:11:34.936Z,7.47
2019-01-17T08:14:13.362Z,7.64
2019-01-17T08:16:41.159Z,7.55
2019-01-17T08:19:09.000Z,7.67
2019-01-17T08:21:36.808Z,7.58
2019-01-17T08:24:36.951Z,7.52
2019-01-17T08:27:05.026Z,7.49
2019-01-17T08:29:32.811Z,7.60
2019-01-17T08:32:31.558Z,7.49
2019-01-17T08:35:00.099Z,7.56
2019-01-17T08:37:27.889Z,7.62
2019-01-17T08:40:10.479Z,7.64
2019-01-17T08:42:38.450Z,7.64
2019-01-17T08:45:06.960Z,7.54
2019-01-17T08:48:00.315Z,7.53
2019-01-17T08:50:41.165Z,7.67
2019-01-17T08:53:33.219Z,7.68
2019-01-17T08:55:52.654Z,7.70
2019-01-17T08:58:39.974Z,7.80
2019-01-17T09:01:07.808Z,7.83
2019-01-17T09:04:02.481Z,7.83
2019-01-17T09:06:32.073Z,7.73
2019-01-17T09:09:05.506Z,7.80
2019-01-17T09:11:51.367Z,7.94
2019-01-17T09:14:19.504Z,7.90
2019-01-17T09:16:59.395Z,7.86
2019-01-17T09:19:27.233Z,7.88
2019-01-17T09:22:04.197Z,7.85
2019-01-17T09:24:52.385Z,7.89
2019-01-17T09:27:23.152Z,7.92
2019-01-17T09:29:50.965Z,7.97
2019-01-17T09:32:24.808Z,8.06
2019-01-17T09:34:52.580Z,7.99
2019-01-17T09:37:20.333Z,7.87
2019-01-17T09:39:48.092Z,8.02
2019-01-17T09:42:23.381Z,8.09
2019-01-17T09:44:51.151Z,8.08
2019-01-17T09:47:37.578Z,8.08
2019-01-17T09:50:24.696Z,7.96
2019-01-17T09:52:52.752Z,8.03
2019-01-17T09:55:54.756Z,8.00
2019-01-17T09:58:25.032Z,7.97
2019-01-17T10:01:11.699Z,8.01
2019-01-17T10:04:15.873Z,8.04
2019-01-17T10:06:43.718Z,7.95
2019-01-17T10:09:13.542Z,8.06
2019-01-17T10:11:46.140Z,8.34
2019-01-17T10:14:40.601Z,8.47
2019-01-17T10:17:27.409Z,8.53
2019-01-17T10:20:50.252Z,8.72
2019-01-17T10:24:13.418Z,8.52
2019-01-17T10:27:24.108Z,8.28
2019-01-17T10:30:42.697Z,8.41
2019-01-17T10:34:33.668Z,8.41
2019-01-17T10:37:54.844Z,8.48
2019-01-17T10:41:37.862Z,8.75
2019-01-17T10:45:45.276Z,8.90
2019-01-17T10:49:11.350Z,8.78
2019-01-17T10:53:23.150Z,8.70
2019-01-17T10:56:45.049Z,8.70
2019-01-17T11:00:35.092Z,8.62
2019-01-17T11:04:05.322Z,8.76
2019-01-17T11:07:19.286Z,8.67
2019-01-17T11:11:27.737Z,8.70
2019-01-17T11:14:53.669Z,8.58
2019-01-17T11:19:04.348Z,8.55
2019-01-17T11:22:50.039Z,8.70
2019-01-17T11:26:09.866Z,8.65
2019-01-17T11:29:46.311Z,8.84
2019-01-17T11:33:02.034Z,9.01
2019-01-17T11:36:31.275Z,8.99
2019-01-17T11:40:01.750Z,9.00
2019-01-17T11:43:22.171Z,9.23
2019-01-17T11:46:49.336Z,9.44
2019-01-17T11:50:14.015Z,9.57
2019-01-17T11:53:25.403Z,10.00
2019-01-17T11:56:56.382Z,10.17
2019-01-17T12:00:58.846Z,10.34
2019-01-17T12:04:37.654Z,10.25
2019-01-17T12:07:36.170Z,13.35
2019-01-17T12:10:24.870Z,15.97
2019-01-17T12:13:17.471Z,14.52
2019-01-17T12:15:48.334Z,13.19
2019-01-17T12:18:16.267Z,12.30
2019-01-17T12:20:44.946Z,11.67
2019-01-17T12:23:29.157Z,11.19
2019-01-17T12:25:56.983Z,10.80
2019-01-17T12:29:09.110Z,10.73
2019-01-17T12:31:37.034Z,10.60
2019-01-17T12:34:25.497Z,10.50
2019-01-17T12:36:53.370Z,10.39
2019-01-17T12:39:43.860Z,10.12
2019-01-17T12:42:40.704Z,10.22
2019-01-17T12:45:09.664Z,10.44
2019-01-17T12:47:57.279Z,10.79
2019-01-17T12:50:26.233Z,11.08
2019-01-17T12:53:38.862Z,11.32
2019-01-17T12:56:08.656Z,11.50
2019-01-17T12:58:59.753Z,11.24
2019-01-17T13:01:16.145Z,11.15
2019-01-17T13:03:43.981Z,10.81
2019-01-17T13:06:22.646Z,10.67
2019-01-17T13:08:49.838Z,10.68
2019-01-17T13:11:17.753Z,10.71
2019-01-17T13:13:55.051Z,10.90
2019-01-17T13:16:22.873Z,10.72
2019-01-17T13:18:50.633Z,10.39
2019-01-17T13:21:18.967Z,9.91
2019-01-17T13:24:02.795Z,9.71
2019-01-17T13:26:39.111Z,9.38
2019-01-17T13:29:08.118Z,9.07
2019-01-17T13:31:58.219Z,9.14
2019-01-17T13:34:27.836Z,9.10
2019-01-17T13:37:07.344Z,9.01
2019-01-17T13:39:34.201Z,9.13
2019-01-17T13:42:33.143Z,8.91
2019-01-17T13:45:33.984Z,9.01
2019-01-17T13:48:21.657Z,9.01
2019-01-17T13:50:49.647Z,8.73
2019-01-17T13:53:17.413Z,8.52
2019-01-17T13:56:14.185Z,8.55
2019-01-17T13:58:42.071Z,8.46
2019-01-17T14:02:01.873Z,8.53
2019-01-17T14:04:38.663Z,8.46
2019-01-17T14:07:07.588Z,8.49
2019-01-17T14:09:38.416Z,8.34
2019-01-17T14:12:06.308Z,8.36
2019-01-17T14:15:18.982Z,8.26
2019-01-17T14:18:27.974Z,8.34
2019-01-17T14:20:54.813Z,8.26
2019-01-17T14:23:31.820Z,8.14
2019-01-17T14:26:16.804Z,8.28
2019-01-17T14:29:14.245Z,8.43
2019-01-17T14:31:42.008Z,8.25
2019-01-17T14:34:09.764Z,8.34
2019-01-17T14:36:37.551Z,8.33
2019-01-17T14:39:08.109Z,8.32
2019-01-17T14:41:35.949Z,8.56
2019-01-17T14:44:13.131Z,8.80
2019-01-17T14:47:19.193Z,8.74
2019-01-17T14:49:56.026Z,8.56
2019-01-17T14:52:24.154Z,8.52
2019-01-17T14:55:13.774Z,8.27
2019-01-17T14:58:03.954Z,8.31
2019-01-17T15:00:35.391Z,8.34
2019-01-17T15:03:17.058Z,8.34
2019-01-17T15:05:59.415Z,8.34
2019-01-17T15:08:39.617Z,8.17
2019-01-17T15:11:25.453Z,8.11
2019-01-17T15:14:26.373Z,7.94
2019-01-17T15:17:15.207Z,7.85
2019-01-17T15:19:55.649Z,7.71
2019-01-17T15:22:24.789Z,7.57
2019-01-17T15:24:52.643Z,7.44
2019-01-17T15:27:41.593Z,7.42
2019-01-17T15:30:47.155Z,7.42
2019-01-17T15:33:16.737Z,7.53
2019-01-17T15:36:09.346Z,7.52
2019-01-17T15:39:11.169Z,7.63
2019-01-17T15:42:06.468Z,7.60
2019-01-17T15:44:31.883Z,7.64
2019-01-17T15:47:32.720Z,7.65
2019-01-17T15:50:00.857Z,7.38
2019-01-17T15:53:03.984Z,7.34
2019-01-17T15:55:48.856Z,7.47
2019-01-17T15:58:20.309Z,7.36
2019-01-17T16:00:52.158Z,7.35
2019-01-17T16:03:22.081Z,7.37
2019-01-17T16:06:19.859Z,7.44
2019-01-17T16:09:31.488Z,7.39
2019-01-17T16:12:33.349Z,7.27
2019-01-17T16:15:01.309Z,7.33
2019-01-17T16:17:42.844Z,7.48
2019-01-17T16:20:17.503Z,7.53
2019-01-17T16:22:57.180Z,7.65
2019-01-17T16:25:25.220Z,7.48
2019-01-17T16:27:53.446Z,7.42
2019-01-17T16:30:29.475Z,7.20
2019-01-17T16:33:24.840Z,7.06
2019-01-17T16:35:54.582Z,7.01
2019-01-17T16:38:26.156Z,6.91
2019-01-17T16:40:54.126Z,7.03
2019-01-17T16:43:38.529Z,6.96
2019-01-17T16:46:07.436Z,7.15
2019-01-17T16:48:35.189Z,7.29
2019-01-17T16:51:10.603Z,7.25
2019-01-17T16:53:53.498Z,7.33
2019-01-17T16:56:33.275Z,7.18
2019-01-17T16:59:02.776Z,7.39
2019-01-17T17:01:53.273Z,7.31
2019-01-17T17:04:21.260Z,7.42
2019-01-17T17:07:01.525Z,7.46
2019-01-17T17:09:27.771Z,7.38
2019-01-17T17:12:17.383Z,7.32
2019-01-17T17:15:09.155Z,7.25
2019-01-17T17:17:56.072Z,7.08
2019-01-17T17:20:25.535Z,6.99
2019-01-17T17:23:10.696Z,6.79
2019-01-17T17:25:49.369Z,6.58
2019-01-17T17:28:42.843Z,6.40
2019-01-17T17:32:10.147Z,6.39
2019-01-17T17:35:11.083Z,6.31
2019-01-17T17:40:59.970Z,6.05
2019-01-17T17:44:25.541Z,5.89
2019-01-17T17:47:27.419Z,5.72
2019-01-17T17:50:00.691Z,5.72
2019-01-17T17:53:08.857Z,5.91
2019-01-17T17:55:39.255Z,5.84
2019-01-17T17:58:07.016Z,5.72
2019-01-17T18:00:53.699Z,5.73
2019-01-17T18:03:37.147Z,5.75
2019-01-17T18:06:06.755Z,6.06
2019-01-17T18:08:58.215Z,6.01
2019-01-17T18:11:52.186Z,6.01
2019-01-17T18:14:48.322Z,6.05
2019-01-17T18:17:47.630Z,6.00
2019-01-17T18:20:29.912Z,5.95
2019-01-17T18:23:30.699Z,6.05
2019-01-17T18:26:44.614Z,5.82
2019-01-17T18:29:27.888Z,5.94
2019-01-17T18:32:20.842Z,5.66
2019-01-17T18:35:43.324Z,5.36
2019-01-17T18:41:39.088Z,5.19
2019-01-17T18:44:36.644Z,5.10
2019-01-17T18:47:23.155Z,5.14
2019-01-17T18:51:18.728Z,5.02
2019-01-17T18:53:51.964Z,4.94
2019-01-17T18:57:08.998Z,4.74
2019-01-17T18:59:56.728Z,4.72
2019-01-17T19:06:01.130Z,4.68
2019-01-17T19:08:29.138Z,4.67
2019-01-17T19:10:57.042Z,4.57
2019-01-17T19:13:26.608Z,4.50
2019-01-17T19:15:56.627Z,4.37
2019-01-17T19:18:36.619Z,4.44
2019-01-17T19:21:05.438Z,4.52
2019-01-17T19:23:38.348Z,4.41
2019-01-17T19:26:20.758Z,4.29
2019-01-17T19:28:49.045Z,4.44
2019-01-17T19:31:16.802Z,4.41
2019-01-17T19:33:48.974Z,4.62
2019-01-17T19:36:24.983Z,4.73
2019-01-17T19:38:52.807Z,4.80
2019-01-17T19:41:20.828Z,4.72
2019-01-17T19:43:49.664Z,4.64
2019-01-17T19:46:18.533Z,4.62
2019-01-17T19:48:46.401Z,4.65
2019-01-17T19:51:43.263Z,4.60
2019-01-17T19:54:17.009Z,4.63
2019-01-17T19:56:44.874Z,4.58
2019-01-17T19:59:34.505Z,4.44
2019-01-17T20:02:11.447Z,4.25
2019-01-17T20:05:08.153Z,4.47
2019-01-17T20:07:51.955Z,4.29
2019-01-17T20:10:40.937Z,4.28
2019-01-17T20:13:08.824Z,4.25
2019-01-17T20:15:36.698Z,4.11
2019-01-17T20:18:04.946Z,4.09
2019-01-17T20:20:33.878Z,3.87
2019-01-17T20:23:13.365Z,3.95
2019-01-17T20:25:41.136Z,4.01
2019-01-17T20:28:08.905Z,3.94
2019-01-17T20:30:36.920Z,4.00
2019-01-17T20:33:14.612Z,3.86
2019-01-17T20:35:42.408Z,3.79
2019-01-17T20:38:10.206Z,3.80
2019-01-17T20:40:37.933Z,4.06
2019-01-17T20:43:05.924Z,4.01
2019-01-17T20:45:33.722Z,3.87
2019-01-17T20:48:01.504Z,3.86
2019-01-17T20:50:32.050Z,3.64
2019-01-17T20:53:33.464Z,3.74
2019-01-17T20:56:09.489Z,3.77
2019-01-17T20:58:42.328Z,3.81
2019-01-17T21:02:26.559Z,3.60
2019-01-17T21:05:29.371Z,3.63
2019-01-17T21:08:30.539Z,3.62
2019-01-17T21:14:25.901Z,3.78
2019-01-17T21:16:54.926Z,3.91
2019-01-17T21:19:24.090Z,3.97
2019-01-17T21:21:51.901Z,4.09
2019-01-17T21:24:20.113Z,4.18
2019-01-17T21:26:50.677Z,4.20
2019-01-17T21:29:18.791Z,4.10
2019-01-17T21:31:46.859Z,4.20
2019-01-17T21:34:16.018Z,4.22
2019-01-17T21:36:45.934Z,4.13
2019-01-17T21:39:16.563Z,3.98
2019-01-17T21:41:44.804Z,4.02
2019-01-17T21:44:12.970Z,3.92
2019-01-17T21:46:44.796Z,3.82
2019-01-17T21:49:13.307Z,3.63
2019-01-17T21:51:41.865Z,3.54
2019-01-17T21:54:17.061Z,3.59
2019-01-17T21:56:45.253Z,3.44
2019-01-17T21:59:13.017Z,3.49
2019-01-17T22:01:40.805Z,3.46
2019-01-17T22:04:08.610Z,3.47
2019-01-17T22:06:36.401Z,3.52
2019-01-17T22:09:06.932Z,3.52
2019-01-17T22:11:34.709Z,3.42
2019-01-17T22:14:02.478Z,3.44
2019-01-17T22:16:34.402Z,3.41
2019-01-17T22:19:16.159Z,3.41
2019-01-17T22:21:48.472Z,3.22
2019-01-17T22:24:16.460Z,3.10
2019-01-17T22:26:44.232Z,3.12
2019-01-17T22:29:12.010Z,3.12
2019-01-17T22:31:39.893Z,3.09
2019-01-17T22:34:09.065Z,3.08
2019-01-17T22:36:38.538Z,2.92
2019-01-17T22:39:06.326Z,2.82
2019-01-17T22:41:34.106Z,2.71
2019-01-17T22:44:03.103Z,2.89
2019-01-17T22:46:30.979Z,3.03
2019-01-17T22:48:58.798Z,3.03
2019-01-17T22:51:26.530Z,2.99
2019-01-17T22:53:54.318Z,3.13
2019-01-17T22:56:22.132Z,3.39
2019-01-17T22:58:49.862Z,3.45
2019-01-17T23:01:22.198Z,3.47
2019-01-17T23:03:51.420Z,3.28
2019-01-17T23:06:20.928Z,3.38
2019-01-17T23:08:48.818Z,3.46
2019-01-17T23:11:16.684Z,3.42
2019-01-17T23:13:44.473Z,3.26
2019-01-17T23:16:12.242Z,3.46
2019-01-17T23:18:40.026Z,3.66
2019-01-17T23:21:07.814Z,3.67
2019-01-17T23:23:35.615Z,3.64
2019-01-17T23:26:03.679Z,3.64
2019-01-17T23:28:31.796Z,3.84
2019-01-17T23:30:59.593Z,3.89
2019-01-17T23:33:27.511Z,3.88
2019-01-17T23:35:57.706Z,3.82
2019-01-17T23:38:25.903Z,3.92
2019-01-17T23:40:53.895Z,3.91
2019-01-17T23:43:21.675Z,3.87
2019-01-17T23:45:51.829Z,3.95
2019-01-17T23:48:19.569Z,3.95
2019-01-17T23:50:47.512Z,3.91
2019-01-17T23:53:15.265Z,3.88
2019-01-17T23:55:44.450Z,3.94
2019-01-17T23:58:12.193Z,4.05
